createdAt,value
2023-01-22T00:01:09.187Z,1.90
2023-01-22T00:03:37.402Z,0.90
2023-01-22T00:06:13.685Z,0.70
2023-01-22T00:08:48.512Z,0.90
2023-01-22T00:11:16.797Z,0.80
2023-01-22T00:16:17.111Z,1.00
2023-01-22T00:23:42.439Z,1.00
2023-01-22T00:26:12.587Z,0.50
2023-01-22T00:31:13.075Z,0.90
2023-01-22T00:33:41.783Z,1.00
2023-01-22T00:36:10.983Z,0.80
2023-01-22T00:41:12.687Z,0.80
2023-01-22T00:46:13.665Z,0.80
2023-01-22T00:51:09.158Z,1.60
2023-01-22T01:01:04.173Z,0.90
2023-01-22T01:03:35.348Z,0.50
2023-01-22T01:06:06.733Z,1.10
2023-01-22T01:08:39.445Z,0.90
2023-01-22T01:11:11.920Z,0.90
2023-01-22T01:13:43.126Z,0.90
2023-01-22T01:16:16.649Z,1.20
2023-01-22T01:18:45.990Z,2.30
2023-01-22T01:23:42.765Z,0.70
2023-01-22T01:26:15.532Z,0.90
2023-01-22T01:28:45.491Z,0.90
2023-01-22T01:31:15.773Z,0.40
2023-01-22T01:36:40.382Z,0.80
2023-01-22T01:39:09.996Z,0.80
2023-01-22T01:44:11.549Z,2.70
2023-01-22T01:46:52.778Z,-0.40
2023-01-22T01:49:48.777Z,0.70
2023-01-22T01:52:17.773Z,1.00
2023-01-22T01:54:49.350Z,1.10
2023-01-22T01:57:21.138Z,1.10
2023-01-22T01:59:50.842Z,0.90
2023-01-22T02:02:20.524Z,1.10
2023-01-22T02:04:50.822Z,1.00
2023-01-22T02:14:44.623Z,0.80
2023-01-22T02:17:18.645Z,0.90
2023-01-22T02:22:23.492Z,0.90
2023-01-22T02:24:51.013Z,2.90
2023-01-22T02:29:48.368Z,0.80
2023-01-22T02:32:15.902Z,0.30
2023-01-22T02:34:43.054Z,0.90
2023-01-22T02:37:10.475Z,1.30
2023-01-22T02:39:37.735Z,0.80
2023-01-22T02:44:35.365Z,0.90
2023-01-22T02:47:02.604Z,0.60
2023-01-22T02:49:29.606Z,-0.10
2023-01-22T02:54:25.908Z,0.40
2023-01-22T02:56:52.914Z,0.00
2023-01-22T03:01:47.658Z,1.40
2023-01-22T03:04:19.110Z,0.90
2023-01-22T03:09:18.345Z,-0.50
2023-01-22T03:11:48.429Z,2.20
2023-01-22T03:14:45.263Z,0.40
2023-01-22T03:20:21.262Z,0.90
2023-01-22T03:25:16.254Z,0.50
2023-01-22T03:35:31.035Z,-0.10
2023-01-22T03:38:12.401Z,0.90
2023-01-22T03:50:37.331Z,2.80
2023-01-22T03:53:04.281Z,0.10
2023-01-22T03:55:32.958Z,1.20
2023-01-22T03:58:00.008Z,1.40
2023-01-22T04:00:29.343Z,0.90
2023-01-22T04:02:56.839Z,1.10
2023-01-22T04:07:57.671Z,0.50
2023-01-22T04:15:36.070Z,1.10
2023-01-22T04:18:28.247Z,0.70
2023-01-22T04:23:53.150Z,1.10
2023-01-22T04:26:22.641Z,0.90
2023-01-22T04:28:57.380Z,0.60
2023-01-22T04:34:00.356Z,1.00
2023-01-22T04:36:32.405Z,1.00
2023-01-22T04:49:00.526Z,1.10
2023-01-22T04:51:27.727Z,1.00
2023-01-22T04:53:54.987Z,0.60
2023-01-22T04:58:53.551Z,1.10
2023-01-22T05:03:52.759Z,1.60
2023-01-22T05:08:50.425Z,1.10
2023-01-22T05:11:17.595Z,1.20
2023-01-22T05:13:50.373Z,1.20
2023-01-22T05:18:56.051Z,1.50
2023-01-22T05:26:27.571Z,1.20
2023-01-22T05:29:03.257Z,1.20
2023-01-22T05:31:50.804Z,1.00
2023-01-22T05:37:09.589Z,1.30
2023-01-22T05:42:06.880Z,1.50
2023-01-22T05:44:39.127Z,1.30
2023-01-22T05:47:10.584Z,1.80
2023-01-22T05:54:54.853Z,2.50
2023-01-22T05:57:27.248Z,0.60
2023-01-22T05:59:54.326Z,1.40
2023-01-22T06:04:52.010Z,0.20
2023-01-22T06:22:33.020Z,1.50
2023-01-22T06:25:09.680Z,1.50
2023-01-22T06:27:57.180Z,2.40
2023-01-22T06:32:56.373Z,1.50
2023-01-22T06:35:28.440Z,1.60
2023-01-22T06:40:36.817Z,1.60
2023-01-22T06:43:10.781Z,1.50
2023-01-22T06:45:39.129Z,1.70
2023-01-22T06:50:43.520Z,2.00
2023-01-22T06:55:44.620Z,2.10
2023-01-22T07:00:48.052Z,1.60
2023-01-22T07:03:15.344Z,1.60
2023-01-22T07:08:16.061Z,1.90
2023-01-22T07:18:14.715Z,1.60
2023-01-22T07:20:42.581Z,3.10
2023-01-22T07:23:10.861Z,1.70
2023-01-22T07:25:40.390Z,1.60
2023-01-22T07:28:08.526Z,1.60
2023-01-22T07:30:35.857Z,1.80
2023-01-22T07:33:03.813Z,2.20
2023-01-22T07:43:08.181Z,1.60
2023-01-22T07:45:37.888Z,1.00
2023-01-22T07:58:09.739Z,1.40
2023-01-22T08:00:37.224Z,1.40
2023-01-22T08:03:10.536Z,1.60
2023-01-22T08:05:43.526Z,1.70
2023-01-22T08:08:15.798Z,3.60
2023-01-22T08:15:45.330Z,1.80
2023-01-22T08:18:22.774Z,2.30
2023-01-22T08:28:16.128Z,1.90
2023-01-22T08:30:46.423Z,2.40
2023-01-22T08:33:15.919Z,1.80
2023-01-22T08:35:43.325Z,1.80
2023-01-22T08:40:38.149Z,1.90
2023-01-22T08:45:33.267Z,2.30
2023-01-22T08:48:00.539Z,2.50
2023-01-22T08:50:29.302Z,1.80
2023-01-22T08:52:57.905Z,2.40
2023-01-22T08:55:33.994Z,1.90
2023-01-22T08:58:01.127Z,2.00
2023-01-22T09:03:01.373Z,2.00
2023-01-22T09:10:24.237Z,3.40
2023-01-22T09:12:53.498Z,2.20
2023-01-22T09:17:49.654Z,2.20
2023-01-22T09:20:17.178Z,3.20
2023-01-22T09:22:48.602Z,2.20
2023-01-22T09:25:18.474Z,3.00
2023-01-22T09:27:45.485Z,3.00
2023-01-22T09:30:15.875Z,2.30
2023-01-22T09:32:43.146Z,2.10
2023-01-22T09:35:10.413Z,2.40
2023-01-22T09:37:37.472Z,3.00
2023-01-22T09:40:04.860Z,2.40
2023-01-22T09:42:37.636Z,2.40
2023-01-22T09:45:10.992Z,3.00
2023-01-22T09:47:51.422Z,2.40
2023-01-22T09:50:22.925Z,2.40
2023-01-22T09:52:52.522Z,2.60
2023-01-22T09:55:23.618Z,2.50
2023-01-22T09:57:54.173Z,2.50
2023-01-22T10:00:30.114Z,2.80
2023-01-22T10:03:10.720Z,2.60
2023-01-22T10:05:42.888Z,2.60
2023-01-22T10:08:17.498Z,3.90
2023-01-22T10:15:40.534Z,2.60
2023-01-22T10:18:37.889Z,2.70
2023-01-22T10:21:16.206Z,2.70
2023-01-22T10:23:43.479Z,2.60
2023-01-22T10:26:28.093Z,2.70
2023-01-22T10:28:58.302Z,2.80
2023-01-22T10:31:36.164Z,2.80
2023-01-22T10:34:13.808Z,2.80
2023-01-22T10:36:40.896Z,2.20
2023-01-22T10:39:17.186Z,2.80
2023-01-22T10:41:45.010Z,2.70
2023-01-22T10:44:23.003Z,2.90
2023-01-22T10:46:51.976Z,2.90
2023-01-22T10:49:27.355Z,2.90
2023-01-22T10:51:59.729Z,2.90
2023-01-22T10:54:31.836Z,3.00
2023-01-22T10:57:22.587Z,3.00
2023-01-22T11:00:14.980Z,3.40
2023-01-22T11:02:49.673Z,3.00
2023-01-22T11:05:16.723Z,3.00
2023-01-22T11:07:45.934Z,2.80
2023-01-22T11:10:51.160Z,3.10
2023-01-22T11:14:05.016Z,3.20
2023-01-22T11:16:39.037Z,3.20
2023-01-22T11:19:16.803Z,3.20
2023-01-22T11:22:01.428Z,3.20
2023-01-22T11:24:41.152Z,3.40
2023-01-22T11:27:26.946Z,3.20
2023-01-22T11:30:29.586Z,3.20
2023-01-22T11:33:28.295Z,4.30
2023-01-22T11:36:16.872Z,4.80
2023-01-22T11:38:49.999Z,5.30
2023-01-22T11:41:34.387Z,3.40
2023-01-22T11:44:30.943Z,3.10
2023-01-22T11:47:04.170Z,3.10
2023-01-22T11:50:25.723Z,3.00
2023-01-22T11:53:57.811Z,3.10
2023-01-22T11:56:48.867Z,3.00
2023-01-22T12:00:07.263Z,3.10
2023-01-22T12:03:06.209Z,3.10
2023-01-22T12:06:27.155Z,3.10
2023-01-22T12:09:58.438Z,3.10
2023-01-22T12:12:46.213Z,3.10
2023-01-22T12:15:21.959Z,3.10
2023-01-22T12:17:51.692Z,0.30
2023-01-22T12:22:59.685Z,3.20
2023-01-22T12:25:51.181Z,3.20
2023-01-22T12:28:29.414Z,3.20
2023-01-22T12:31:20.696Z,3.20
2023-01-22T12:36:25.123Z,3.20
2023-01-22T12:38:59.595Z,3.30
2023-01-22T12:41:51.052Z,3.70
2023-01-22T12:44:31.063Z,3.20
2023-01-22T12:47:02.847Z,3.30
2023-01-22T12:49:44.180Z,3.30
2023-01-22T12:52:32.048Z,3.20
2023-01-22T12:55:00.153Z,3.20
2023-01-22T12:57:46.425Z,3.30
2023-01-22T13:00:27.839Z,3.20
2023-01-22T13:05:31.007Z,3.30
2023-01-22T13:08:33.484Z,3.20
2023-01-22T13:11:12.266Z,3.30
2023-01-22T13:14:15.098Z,3.20
2023-01-22T13:16:55.093Z,3.20
2023-01-22T13:19:32.170Z,3.20
2023-01-22T13:22:00.828Z,3.30
2023-01-22T13:27:14.072Z,3.20
2023-01-22T13:32:19.003Z,3.30
2023-01-22T13:34:46.798Z,3.60
2023-01-22T13:37:23.266Z,4.00
2023-01-22T13:39:50.643Z,2.10
2023-01-22T13:42:17.877Z,3.30
2023-01-22T13:44:52.605Z,3.40
2023-01-22T13:47:27.967Z,3.40
2023-01-22T13:49:56.031Z,3.50
2023-01-22T13:52:23.313Z,3.70
2023-01-22T13:55:21.068Z,3.30
2023-01-22T13:57:54.623Z,3.40
2023-01-22T14:00:36.905Z,3.40
2023-01-22T14:03:22.635Z,3.40
2023-01-22T14:05:52.460Z,4.20
2023-01-22T14:08:32.261Z,3.50
2023-01-22T14:11:05.943Z,3.50
2023-01-22T14:13:43.561Z,3.10
2023-01-22T14:16:14.668Z,3.60
2023-01-22T14:18:48.167Z,3.90
2023-01-22T14:21:17.504Z,3.60
2023-01-22T14:23:51.871Z,5.20
2023-01-22T14:34:05.133Z,3.60
2023-01-22T14:36:54.347Z,3.10
2023-01-22T14:39:41.506Z,3.70
2023-01-22T14:50:31.723Z,3.80
2023-01-22T14:52:59.102Z,3.80
2023-01-22T14:55:26.197Z,4.40
2023-01-22T14:57:57.385Z,3.80
2023-01-22T15:02:55.817Z,3.90
2023-01-22T15:05:25.091Z,3.80
2023-01-22T15:07:59.793Z,3.90
2023-01-22T15:10:27.471Z,3.80
2023-01-22T15:15:28.384Z,3.80
2023-01-22T15:18:00.109Z,4.70
2023-01-22T15:20:30.435Z,3.60
2023-01-22T15:23:00.037Z,3.90
2023-01-22T15:25:30.169Z,3.80
2023-01-22T15:28:03.242Z,3.00
2023-01-22T15:30:31.481Z,4.00
2023-01-22T15:38:00.165Z,4.50
2023-01-22T15:45:26.393Z,3.80
2023-01-22T15:47:57.159Z,3.90
2023-01-22T15:52:56.049Z,3.30
2023-01-22T15:55:25.098Z,3.90
2023-01-22T15:57:54.406Z,2.70
2023-01-22T16:02:52.949Z,2.90
2023-01-22T16:05:21.355Z,3.70
2023-01-22T16:08:13.560Z,3.80
2023-01-22T16:10:49.799Z,4.40
2023-01-22T16:15:47.195Z,4.10
2023-01-22T16:18:15.980Z,4.60
2023-01-22T16:20:43.368Z,4.00
2023-01-22T16:23:12.967Z,4.30
2023-01-22T16:25:41.830Z,3.80
2023-01-22T16:28:09.180Z,4.20
2023-01-22T16:30:42.621Z,3.00
2023-01-22T16:33:23.535Z,5.30
2023-01-22T16:36:14.190Z,3.80
2023-01-22T16:38:42.173Z,3.80
2023-01-22T16:41:25.333Z,4.50
2023-01-22T16:43:58.616Z,3.80
2023-01-22T16:46:31.484Z,3.80
2023-01-22T16:49:07.788Z,3.80
2023-01-22T16:51:44.060Z,3.80
2023-01-22T16:54:23.354Z,3.80
2023-01-22T16:56:51.155Z,3.50
2023-01-22T16:59:18.159Z,3.50
2023-01-22T17:01:47.388Z,3.90
2023-01-22T17:04:15.328Z,4.20
2023-01-22T17:06:48.535Z,4.10
2023-01-22T17:09:21.892Z,3.90
2023-01-22T17:11:53.529Z,3.80
2023-01-22T17:14:23.391Z,3.80
2023-01-22T17:16:53.760Z,3.80
2023-01-22T17:19:23.563Z,3.80
2023-01-22T17:21:55.399Z,4.00
2023-01-22T17:24:25.204Z,3.70
2023-01-22T17:26:53.127Z,4.30
2023-01-22T17:29:21.547Z,3.80
2023-01-22T17:31:50.253Z,3.80
2023-01-22T17:34:20.067Z,3.90
2023-01-22T17:36:50.919Z,2.80
2023-01-22T17:39:20.682Z,3.80
2023-01-22T17:41:54.223Z,3.70
2023-01-22T17:44:26.355Z,3.70
2023-01-22T17:46:59.570Z,3.80
2023-01-22T17:49:26.884Z,3.80
2023-01-22T17:51:54.165Z,3.20
2023-01-22T17:54:21.188Z,3.80
2023-01-22T17:56:53.224Z,3.80
2023-01-22T17:59:21.912Z,3.80
2023-01-22T18:01:51.166Z,3.30
2023-01-22T18:04:18.427Z,5.10
2023-01-22T18:06:46.314Z,3.80
2023-01-22T18:09:25.304Z,4.60
2023-01-22T18:11:53.482Z,3.30
2023-01-22T18:14:25.666Z,4.40
2023-01-22T18:16:54.571Z,2.90
2023-01-22T18:24:27.491Z,3.80
2023-01-22T18:36:50.263Z,3.80
2023-01-22T18:39:21.508Z,3.70
2023-01-22T18:41:51.123Z,4.00
2023-01-22T18:44:20.522Z,4.20
2023-01-22T18:49:18.831Z,3.70
2023-01-22T18:51:47.777Z,3.50
2023-01-22T18:54:17.507Z,3.80
2023-01-22T18:56:47.323Z,5.20
2023-01-22T18:59:14.447Z,3.70
2023-01-22T19:01:43.559Z,3.80
2023-01-22T19:06:54.149Z,3.70
2023-01-22T19:09:21.299Z,4.60
2023-01-22T19:11:54.599Z,3.70
2023-01-22T19:14:22.092Z,3.40
2023-01-22T19:16:53.635Z,4.30
2023-01-22T19:19:25.618Z,3.60
2023-01-22T19:21:54.915Z,3.60
2023-01-22T19:24:26.811Z,3.60
2023-01-22T19:26:54.874Z,4.80
2023-01-22T19:29:23.802Z,3.60
2023-01-22T19:31:52.325Z,3.60
2023-01-22T19:34:24.855Z,4.00
2023-01-22T19:36:54.936Z,3.10
2023-01-22T19:39:26.934Z,4.30
2023-01-22T19:41:54.528Z,3.70
2023-01-22T19:44:23.702Z,3.60
2023-01-22T19:46:53.564Z,4.20
2023-01-22T19:49:21.191Z,3.60
2023-01-22T19:51:48.248Z,3.70
2023-01-22T19:54:18.367Z,3.60
2023-01-22T19:56:47.590Z,3.70
2023-01-22T19:59:17.828Z,3.10
2023-01-22T20:01:46.156Z,4.40
2023-01-22T20:04:25.218Z,3.60
2023-01-22T20:07:01.655Z,0.00
2023-01-22T20:09:34.168Z,3.60
2023-01-22T20:12:02.839Z,4.10
2023-01-22T20:14:35.648Z,3.60
2023-01-22T20:17:07.607Z,3.60
2023-01-22T20:22:10.812Z,3.50
2023-01-22T20:24:40.271Z,3.50
2023-01-22T20:29:37.714Z,3.00
2023-01-22T20:32:05.148Z,4.30
2023-01-22T20:34:35.530Z,3.00
2023-01-22T20:37:07.289Z,4.00
2023-01-22T20:42:04.618Z,3.50
2023-01-22T20:49:29.897Z,4.60
2023-01-22T20:51:58.450Z,3.00
2023-01-22T20:59:28.802Z,3.30
2023-01-22T21:04:23.745Z,3.30
2023-01-22T21:06:50.898Z,3.30
2023-01-22T21:09:18.145Z,3.20
2023-01-22T21:11:47.789Z,4.70
2023-01-22T21:14:16.541Z,4.30
2023-01-22T21:16:46.963Z,3.20
2023-01-22T21:19:18.340Z,3.20
2023-01-22T21:21:51.556Z,3.20
2023-01-22T21:24:19.273Z,4.10
2023-01-22T21:29:19.045Z,3.10
2023-01-22T21:31:49.109Z,3.90
2023-01-22T21:34:25.645Z,3.00
2023-01-22T21:36:54.984Z,3.90
2023-01-22T21:39:28.270Z,3.20
2023-01-22T21:45:03.396Z,3.10
2023-01-22T21:47:31.331Z,5.80
2023-01-22T21:52:27.179Z,3.00
2023-01-22T21:54:54.412Z,3.10
2023-01-22T21:57:26.129Z,3.20
2023-01-22T21:59:53.076Z,3.70
2023-01-22T22:02:20.430Z,2.40
2023-01-22T22:22:14.549Z,2.50
2023-01-22T22:24:44.161Z,3.00
2023-01-22T22:29:41.365Z,2.80
2023-01-22T22:37:03.469Z,3.00
2023-01-22T22:39:31.906Z,2.60
2023-01-22T22:44:28.837Z,3.30
2023-01-22T22:51:53.890Z,0.60
2023-01-22T22:54:21.278Z,4.20
2023-01-22T22:56:49.325Z,2.60
2023-01-22T23:04:13.588Z,2.00
2023-01-22T23:06:43.178Z,1.70
2023-01-22T23:09:12.438Z,2.70
2023-01-22T23:11:39.680Z,2.60
2023-01-22T23:14:07.748Z,3.40
2023-01-22T23:16:37.309Z,2.30
2023-01-22T23:19:12.456Z,2.70
2023-01-22T23:24:12.579Z,4.50
2023-01-22T23:26:44.032Z,2.80
2023-01-22T23:29:13.891Z,1.60
2023-01-22T23:31:41.808Z,2.20
2023-01-22T23:34:15.714Z,3.10
2023-01-22T23:36:45.233Z,2.80
2023-01-22T23:39:14.518Z,2.80
2023-01-22T23:41:42.660Z,2.80
2023-01-22T23:44:09.901Z,3.40
2023-01-22T23:46:36.919Z,2.60
2023-01-22T23:49:04.577Z,2.80
2023-01-22T23:51:34.771Z,2.80
2023-01-22T23:56:32.794Z,2.80
2023-01-22T23:58:59.827Z,2.80
